createdAt,value
2016-08-13T00:00:00.719Z,68.9
2016-08-13T00:00:10.710Z,69.3
2016-08-13T00:00:20.709Z,69.2
2016-08-13T00:00:30.705Z,69.2
2016-08-13T00:00:40.712Z,69.2
2016-08-13T00:00:50.700Z,68.8
2016-08-13T00:01:00.700Z,68.9
2016-08-13T00:01:10.698Z,69.4
2016-08-13T00:01:20.696Z,68.9
2016-08-13T00:01:30.695Z,69.4
2016-08-13T00:01:40.699Z,69.3
2016-08-13T00:01:50.698Z,68.8
2016-08-13T00:02:00.679Z,68.6
2016-08-13T00:02:10.677Z,69.4
2016-08-13T00:02:20.682Z,69.4
2016-08-13T00:02:30.674Z,69.6
2016-08-13T00:02:40.673Z,69.2
2016-08-13T00:02:50.676Z,69.4
2016-08-13T00:03:00.671Z,68.9
2016-08-13T00:03:10.667Z,68.7
2016-08-13T00:03:20.663Z,69.6
2016-08-13T00:03:30.661Z,69.4
2016-08-13T00:03:40.660Z,69.3
2016-08-13T00:03:50.661Z,69.1
2016-08-13T00:04:00.658Z,69.3
2016-08-13T00:04:10.654Z,69.1
2016-08-13T00:04:20.652Z,69.4
2016-08-13T00:04:30.651Z,69.4
2016-08-13T00:04:40.648Z,69
2016-08-13T00:04:50.650Z,69.1
2016-08-13T00:05:00.644Z,69.3
2016-08-13T00:05:10.645Z,69.4
2016-08-13T00:05:20.640Z,69.5
2016-08-13T00:05:30.638Z,69.2
2016-08-13T00:05:40.637Z,69.4
2016-08-13T00:05:50.634Z,69.6
2016-08-13T00:06:00.638Z,69.3
2016-08-13T00:06:10.635Z,68.9
2016-08-13T00:06:20.629Z,68.9
2016-08-13T00:06:30.629Z,69.6
2016-08-13T00:06:40.624Z,69.6
2016-08-13T00:06:50.623Z,69.5
2016-08-13T00:07:00.623Z,69.4
2016-08-13T00:07:10.618Z,69
2016-08-13T00:07:20.622Z,69.5
2016-08-13T00:07:30.618Z,68.9
2016-08-13T00:07:40.615Z,68.8
2016-08-13T00:07:50.616Z,68.5
2016-08-13T00:08:00.612Z,69
2016-08-13T00:08:10.607Z,69.1
2016-08-13T00:08:20.607Z,69
2016-08-13T00:08:30.604Z,69
2016-08-13T00:08:40.611Z,69
2016-08-13T00:08:50.603Z,68.7
2016-08-13T00:08:59.869Z,69
2016-08-13T00:09:10.601Z,69.5
2016-08-13T00:09:20.596Z,69.5
2016-08-13T00:09:30.592Z,69.6
2016-08-13T00:09:40.589Z,69.4
2016-08-13T00:09:50.590Z,69.4
2016-08-13T00:10:00.586Z,69.1
2016-08-13T00:10:10.588Z,68.8
2016-08-13T00:10:20.584Z,69.1
2016-08-13T00:10:30.584Z,69
2016-08-13T00:10:40.579Z,69.1
2016-08-13T00:10:50.579Z,69.1
2016-08-13T00:11:00.581Z,69.2
2016-08-13T00:11:10.578Z,69.2
2016-08-13T00:11:20.578Z,69.1
2016-08-13T00:11:30.573Z,69.1
2016-08-13T00:11:40.569Z,68.8
2016-08-13T00:11:50.566Z,69.1
2016-08-13T00:12:00.563Z,69.1
2016-08-13T00:12:10.564Z,69
2016-08-13T00:12:20.567Z,69.1
2016-08-13T00:12:30.558Z,69.1
2016-08-13T00:12:40.559Z,69.3
2016-08-13T00:12:50.561Z,69.1
2016-08-13T00:13:00.554Z,69.1
2016-08-13T00:13:10.554Z,69
2016-08-13T00:13:20.547Z,69
2016-08-13T00:13:30.550Z,69.1
2016-08-13T00:13:40.548Z,69.1
2016-08-13T00:13:50.543Z,69
2016-08-13T00:14:00.543Z,69
2016-08-13T00:14:10.543Z,69
2016-08-13T00:14:20.539Z,69.2
2016-08-13T00:14:30.537Z,69.1
2016-08-13T00:14:40.534Z,69.1
2016-08-13T00:14:50.534Z,69.1
2016-08-13T00:15:00.530Z,69
2016-08-13T00:15:10.529Z,69.1
2016-08-13T00:15:20.528Z,69.2
2016-08-13T00:15:30.527Z,69.1
2016-08-13T00:15:40.525Z,69.1
2016-08-13T00:15:50.523Z,69.1
2016-08-13T00:16:00.521Z,69
2016-08-13T00:16:10.517Z,69.1
2016-08-13T00:16:20.519Z,69.2
2016-08-13T00:16:30.514Z,69
2016-08-13T00:16:40.516Z,69.1
2016-08-13T00:16:49.781Z,69.3
2016-08-13T00:17:00.511Z,69.2
2016-08-13T00:17:10.511Z,69
2016-08-13T00:17:20.503Z,69.1
2016-08-13T00:17:30.501Z,69.1
2016-08-13T00:17:40.500Z,69
2016-08-13T00:17:50.498Z,69.1
2016-08-13T00:18:00.496Z,69.1
2016-08-13T00:18:09.765Z,69.1
2016-08-13T00:18:20.491Z,69.2
2016-08-13T00:18:30.492Z,69.2
2016-08-13T00:18:40.495Z,69
2016-08-13T00:18:50.488Z,69
2016-08-13T00:19:00.495Z,69
2016-08-13T00:19:10.485Z,69.2
2016-08-13T00:19:20.479Z,69
2016-08-13T00:19:30.481Z,69
2016-08-13T00:19:39.750Z,69.1
2016-08-13T00:19:50.480Z,69.2
2016-08-13T00:20:00.474Z,69.1
2016-08-13T00:20:10.523Z,69.1
2016-08-13T00:20:20.470Z,69.1
2016-08-13T00:20:30.470Z,69.1
2016-08-13T00:20:40.468Z,69.1
2016-08-13T00:20:50.465Z,69.1
2016-08-13T00:21:00.476Z,69.1
2016-08-13T00:21:10.464Z,69.1
2016-08-13T00:21:20.460Z,69.1
2016-08-13T00:21:30.460Z,69.1
2016-08-13T00:21:40.457Z,69.2
2016-08-13T00:21:50.458Z,69.1
2016-08-13T00:22:00.453Z,69.1
2016-08-13T00:22:10.448Z,68.9
2016-08-13T00:22:20.446Z,69.1
2016-08-13T00:22:30.447Z,69.2
2016-08-13T00:22:40.444Z,69.1
2016-08-13T00:22:50.441Z,69.1
2016-08-13T00:23:00.439Z,69.1
2016-08-13T00:23:10.450Z,68.6
2016-08-13T00:23:20.453Z,69.1
2016-08-13T00:23:30.438Z,68.7
2016-08-13T00:23:40.433Z,69.1
2016-08-13T00:23:50.431Z,69.2
2016-08-13T00:24:00.427Z,69.1
2016-08-13T00:24:10.475Z,69
2016-08-13T00:24:19.695Z,69.1
2016-08-13T00:24:30.420Z,69.1
2016-08-13T00:24:40.422Z,69.2
2016-08-13T00:24:50.436Z,69
2016-08-13T00:25:00.417Z,69.2
2016-08-13T00:25:10.416Z,69
2016-08-13T00:25:20.420Z,68.8
2016-08-13T00:25:30.413Z,68.9
2016-08-13T00:25:40.410Z,68.9
2016-08-13T00:25:50.408Z,69
2016-08-13T00:26:00.408Z,68.9
2016-08-13T00:26:10.404Z,68.9
2016-08-13T00:26:20.403Z,68.9
2016-08-13T00:26:30.398Z,68.9
2016-08-13T00:26:40.397Z,69
2016-08-13T00:26:50.396Z,68.9
2016-08-13T00:27:00.396Z,68.8
2016-08-13T00:27:10.392Z,69
2016-08-13T00:27:19.664Z,69
2016-08-13T00:27:30.386Z,68.8
2016-08-13T00:27:40.384Z,68.9
2016-08-13T00:27:50.386Z,68.9
2016-08-13T00:28:00.380Z,68.9
2016-08-13T00:28:10.379Z,69.2
2016-08-13T00:28:20.384Z,68.8
2016-08-13T00:28:29.648Z,68.9
2016-08-13T00:28:40.378Z,68.7
2016-08-13T00:28:50.373Z,69
2016-08-13T00:29:00.372Z,68.9
2016-08-13T00:29:10.367Z,68.9
2016-08-13T00:29:20.365Z,68.8
2016-08-13T00:29:30.369Z,69.1
2016-08-13T00:29:40.368Z,69.1
2016-08-13T00:29:50.359Z,69.2
2016-08-13T00:30:00.361Z,68.8
2016-08-13T00:30:10.361Z,69
2016-08-13T00:30:20.366Z,68.8
2016-08-13T00:30:29.627Z,69
2016-08-13T00:30:40.352Z,69
2016-08-13T00:30:50.352Z,68.8
2016-08-13T00:31:00.350Z,68.9
2016-08-13T00:31:10.347Z,69.3
2016-08-13T00:31:20.343Z,69.3
2016-08-13T00:31:30.341Z,69.2
2016-08-13T00:31:39.616Z,68.9
2016-08-13T00:31:50.340Z,68.8
2016-08-13T00:32:00.334Z,69.3
2016-08-13T00:32:10.338Z,68.9
2016-08-13T00:32:20.334Z,68.9
2016-08-13T00:32:30.331Z,68.6
2016-08-13T00:32:40.331Z,69
2016-08-13T00:32:50.327Z,69
2016-08-13T00:33:00.325Z,69.3
2016-08-13T00:33:09.599Z,69.3
2016-08-13T00:33:20.324Z,69.3
2016-08-13T00:33:30.320Z,69.3
2016-08-13T00:33:40.319Z,69.1
2016-08-13T00:33:50.316Z,69.1
2016-08-13T00:34:00.325Z,69.3
2016-08-13T00:34:09.584Z,69.1
2016-08-13T00:34:20.315Z,69.2
2016-08-13T00:34:30.307Z,68.7
2016-08-13T00:34:40.309Z,69.2
2016-08-13T00:34:49.575Z,69.3
2016-08-13T00:35:00.304Z,69.3
2016-08-13T00:35:10.300Z,68.9
2016-08-13T00:35:20.302Z,68.5
2016-08-13T00:35:30.296Z,69.2
2016-08-13T00:35:40.295Z,68.5
2016-08-13T00:35:50.296Z,69.4
2016-08-13T00:36:00.290Z,69.1
2016-08-13T00:36:10.290Z,69.2
2016-08-13T00:36:20.289Z,69.1
2016-08-13T00:36:30.290Z,69.1
2016-08-13T00:36:40.293Z,68.5
2016-08-13T00:36:50.305Z,68.6
2016-08-13T00:37:00.293Z,68.9
2016-08-13T00:37:10.276Z,69.1
2016-08-13T00:37:20.275Z,68.6
2016-08-13T00:37:30.275Z,68.7
2016-08-13T00:37:40.278Z,68.9
2016-08-13T00:37:50.270Z,68.5
2016-08-13T00:38:00.269Z,69.3
2016-08-13T00:38:10.269Z,69.3
2016-08-13T00:38:20.263Z,68.7
2016-08-13T00:38:30.264Z,68.9
2016-08-13T00:38:40.261Z,69.1
2016-08-13T00:38:50.258Z,69.1
2016-08-13T00:39:00.265Z,68.8
2016-08-13T00:39:09.525Z,68.8
2016-08-13T00:39:20.255Z,68.6
2016-08-13T00:39:29.525Z,69.1
2016-08-13T00:39:40.251Z,68.7
2016-08-13T00:39:50.250Z,68.7
2016-08-13T00:40:00.243Z,69.2
2016-08-13T00:40:10.245Z,68.7
2016-08-13T00:40:22.383Z,68.7
2016-08-13T00:40:30.242Z,68.6
2016-08-13T00:40:40.239Z,68.9
2016-08-13T00:40:49.507Z,68.7
2016-08-13T00:41:00.240Z,68.9
2016-08-13T00:41:10.235Z,68.9
2016-08-13T00:41:20.237Z,68.7
2016-08-13T00:41:30.239Z,68.7
2016-08-13T00:41:40.237Z,68.6
2016-08-13T00:41:50.242Z,68.9
2016-08-13T00:42:00.222Z,68.9
2016-08-13T00:42:10.232Z,68.7
2016-08-13T00:42:20.225Z,68.4
2016-08-13T00:42:30.226Z,68.9
2016-08-13T00:42:40.214Z,69
2016-08-13T00:42:50.220Z,68.9
2016-08-13T00:43:00.215Z,68.8
2016-08-13T00:43:10.220Z,68.8
2016-08-13T00:43:20.220Z,68.9
2016-08-13T00:43:30.215Z,68.9
2016-08-13T00:43:40.217Z,68.8
2016-08-13T00:43:49.481Z,68.8
2016-08-13T00:44:00.211Z,68.7
2016-08-13T00:44:10.206Z,68.6
2016-08-13T00:44:20.206Z,68.9
2016-08-13T00:44:30.210Z,68.7
2016-08-13T00:44:40.201Z,68.8
2016-08-13T00:44:50.198Z,68.8
2016-08-13T00:45:00.197Z,68.7
2016-08-13T00:45:10.195Z,68.7
2016-08-13T00:45:20.194Z,68.8
2016-08-13T00:45:30.199Z,68.6
2016-08-13T00:45:40.189Z,68.7
2016-08-13T00:45:50.191Z,68.6
2016-08-13T00:46:00.190Z,68.8
2016-08-13T00:46:10.181Z,68.6
2016-08-13T00:46:20.182Z,68.7
2016-08-13T00:46:30.180Z,68.7
2016-08-13T00:46:39.446Z,68.9
2016-08-13T00:46:49.451Z,69
2016-08-13T00:47:00.180Z,68.7
2016-08-13T00:47:10.171Z,68.5
2016-08-13T00:47:20.169Z,68.8
2016-08-13T00:47:30.163Z,68.7
2016-08-13T00:47:40.162Z,69
2016-08-13T00:47:50.158Z,69
2016-08-13T00:48:00.154Z,68.9
2016-08-13T00:48:10.153Z,68.7
2016-08-13T00:48:20.151Z,69
2016-08-13T00:48:30.149Z,68.9
2016-08-13T00:48:40.148Z,68.8
2016-08-13T00:48:50.149Z,68.8
2016-08-13T00:49:00.150Z,68.9
2016-08-13T00:49:10.147Z,68.8
2016-08-13T00:49:20.149Z,68.5
2016-08-13T00:49:30.138Z,68.7
2016-08-13T00:49:40.133Z,69
2016-08-13T00:49:50.134Z,68.8
2016-08-13T00:50:00.122Z,68.9
2016-08-13T00:50:10.118Z,68.3
2016-08-13T00:50:20.105Z,68.7
2016-08-13T00:50:30.114Z,68.7
2016-08-13T00:50:40.112Z,68.7
2016-08-13T00:50:50.110Z,68.7
2016-08-13T00:51:00.102Z,68.8
2016-08-13T00:51:10.098Z,68.7
2016-08-13T00:51:20.093Z,68.5
2016-08-13T00:51:30.094Z,69
2016-08-13T00:51:40.115Z,69
2016-08-13T00:51:50.090Z,68.7
2016-08-13T00:52:00.086Z,68.7
2016-08-13T00:52:09.345Z,68.9
2016-08-13T00:52:20.098Z,68.9
2016-08-13T00:52:30.079Z,68.3
2016-08-13T00:52:40.072Z,68.7
2016-08-13T00:52:50.098Z,68.8
2016-08-13T00:53:00.090Z,68.7
2016-08-13T00:53:10.096Z,68.7
2016-08-13T00:53:20.092Z,68.5
2016-08-13T00:53:30.092Z,69
2016-08-13T00:53:40.093Z,68.7
2016-08-13T00:53:50.087Z,68.8
2016-08-13T00:54:00.086Z,68.7
2016-08-13T00:54:10.082Z,68.9
2016-08-13T00:54:20.083Z,68.7
2016-08-13T00:54:30.085Z,68.7
2016-08-13T00:54:40.084Z,69
2016-08-13T00:54:50.076Z,68.6
2016-08-13T00:55:00.074Z,68.6
2016-08-13T00:55:10.069Z,68.5
2016-08-13T00:55:20.072Z,68.8
2016-08-13T00:55:30.068Z,68.7
2016-08-13T00:55:40.064Z,68.8
2016-08-13T00:55:50.064Z,68.7
2016-08-13T00:56:00.064Z,68.7
2016-08-13T00:56:10.061Z,68.8
2016-08-13T00:56:20.066Z,68.5
2016-08-13T00:56:30.057Z,69
2016-08-13T00:56:40.053Z,68.8
2016-08-13T00:56:50.056Z,68.2
2016-08-13T00:57:00.054Z,68.8
2016-08-13T00:57:09.318Z,68.8
2016-08-13T00:57:20.047Z,68.9
2016-08-13T00:57:30.050Z,69
2016-08-13T00:57:40.053Z,68.8
2016-08-13T00:57:50.040Z,68.6
2016-08-13T00:58:00.042Z,69
2016-08-13T00:58:10.040Z,68.8
2016-08-13T00:58:20.040Z,68.7
2016-08-13T00:58:30.042Z,68.5
2016-08-13T00:58:39.301Z,68.3
2016-08-13T00:58:50.029Z,68.5
2016-08-13T00:59:00.030Z,68.5
2016-08-13T00:59:10.031Z,68.9
2016-08-13T00:59:20.036Z,68.9
2016-08-13T00:59:30.023Z,68.5
2016-08-13T00:59:40.024Z,69
2016-08-13T00:59:50.020Z,68.8
2016-08-13T01:00:00.019Z,68.9
2016-08-13T01:00:10.013Z,68.4
2016-08-13T01:00:20.013Z,68.4
2016-08-13T01:00:30.014Z,68.8
2016-08-13T01:00:40.010Z,68.7
2016-08-13T01:00:50.007Z,68.6
2016-08-13T01:01:00.004Z,68.3
2016-08-13T01:01:10.005Z,68.7
2016-08-13T01:01:20.003Z,68.8
2016-08-13T01:01:30.003Z,68.8
2016-08-13T01:01:40.009Z,68.9
2016-08-13T01:01:50.002Z,68.7
2016-08-13T01:01:59.991Z,68.9
2016-08-13T01:02:10.001Z,68.4
2016-08-13T01:02:19.990Z,68.9
2016-08-13T01:02:29.988Z,68.7
2016-08-13T01:02:39.986Z,68.4
2016-08-13T01:02:49.986Z,68.8
2016-08-13T01:02:59.255Z,68.7
2016-08-13T01:03:09.980Z,68.8
2016-08-13T01:03:19.979Z,68.7
2016-08-13T01:03:29.976Z,68.7
2016-08-13T01:03:39.977Z,68.8
2016-08-13T01:03:49.244Z,69
2016-08-13T01:03:59.977Z,68.7
2016-08-13T01:04:09.969Z,68.4
2016-08-13T01:04:19.969Z,68.4
2016-08-13T01:04:29.972Z,68.8
2016-08-13T01:04:39.963Z,68.7
2016-08-13T01:04:49.964Z,68.8
2016-08-13T01:04:59.960Z,68.6
2016-08-13T01:05:09.958Z,68.7
2016-08-13T01:05:19.956Z,68.7
2016-08-13T01:05:29.959Z,68.9
2016-08-13T01:05:39.959Z,68.8
2016-08-13T01:05:49.950Z,68.8
2016-08-13T01:05:59.950Z,68.4
2016-08-13T01:06:09.947Z,68.1
2016-08-13T01:06:19.951Z,68.8
2016-08-13T01:06:29.952Z,68.6
2016-08-13T01:06:39.942Z,68.4
2016-08-13T01:06:49.940Z,68.8
2016-08-13T01:06:59.936Z,68.8
2016-08-13T01:07:09.933Z,68.5
2016-08-13T01:07:19.933Z,68.9
2016-08-13T01:07:29.932Z,68.8
2016-08-13T01:07:39.933Z,68.8
2016-08-13T01:07:49.925Z,68.4
2016-08-13T01:07:59.927Z,68.6
2016-08-13T01:08:09.926Z,68.7
2016-08-13T01:08:19.920Z,68.4
2016-08-13T01:08:29.921Z,68.8
2016-08-13T01:08:39.917Z,68.4
2016-08-13T01:08:49.915Z,68.3
2016-08-13T01:08:59.916Z,68.6
2016-08-13T01:09:09.913Z,68.4
2016-08-13T01:09:19.193Z,68.5
2016-08-13T01:09:29.910Z,68.4
2016-08-13T01:09:39.907Z,68.3
2016-08-13T01:09:49.906Z,68.3
2016-08-13T01:09:59.913Z,68.6
2016-08-13T01:10:09.176Z,68.5
2016-08-13T01:10:19.898Z,68.6
2016-08-13T01:10:29.897Z,68.5
2016-08-13T01:10:39.896Z,68.5
2016-08-13T01:10:49.893Z,68.7
2016-08-13T01:10:59.896Z,68.6
2016-08-13T01:11:09.888Z,68.4
2016-08-13T01:11:19.886Z,68.3
2016-08-13T01:11:29.889Z,68.6
2016-08-13T01:11:39.883Z,68.6
2016-08-13T01:11:49.883Z,68.7
2016-08-13T01:11:59.878Z,68.9
2016-08-13T01:12:09.875Z,68.4
2016-08-13T01:12:19.877Z,68.3
2016-08-13T01:12:29.873Z,68.4
2016-08-13T01:12:39.873Z,68.6
2016-08-13T01:12:49.871Z,68.6
2016-08-13T01:12:59.871Z,68.6
2016-08-13T01:13:09.871Z,68.6
2016-08-13T01:13:19.863Z,68.5
2016-08-13T01:13:29.863Z,68.4
2016-08-13T01:13:39.861Z,68.6
2016-08-13T01:13:49.131Z,68.5
2016-08-13T01:13:59.857Z,68.5
2016-08-13T01:14:09.855Z,68.5
2016-08-13T01:14:19.861Z,68.4
2016-08-13T01:14:29.122Z,68.5
2016-08-13T01:14:39.849Z,68.6
2016-08-13T01:14:49.851Z,68.5
2016-08-13T01:14:59.846Z,68.5
2016-08-13T01:15:09.844Z,68.5
2016-08-13T01:15:19.114Z,68.5
2016-08-13T01:15:29.841Z,68.6
2016-08-13T01:15:39.837Z,68.6
2016-08-13T01:15:49.839Z,68.6
2016-08-13T01:15:59.833Z,68.5
2016-08-13T01:16:09.833Z,68.4
2016-08-13T01:16:19.832Z,68.4
2016-08-13T01:16:29.827Z,68.7
2016-08-13T01:16:39.828Z,68.6
2016-08-13T01:16:49.834Z,68.5
2016-08-13T01:16:59.825Z,68.6
2016-08-13T01:17:09.830Z,68.6
2016-08-13T01:17:19.821Z,68.4
2016-08-13T01:17:29.091Z,68.5
2016-08-13T01:17:39.814Z,68.6
2016-08-13T01:17:49.815Z,68.4
2016-08-13T01:17:59.813Z,68.4
2016-08-13T01:18:09.813Z,68.5
2016-08-13T01:18:19.816Z,68.5
2016-08-13T01:18:29.804Z,68.6
2016-08-13T01:18:39.807Z,68.5
2016-08-13T01:18:49.804Z,68.6
2016-08-13T01:18:59.802Z,68.5
2016-08-13T01:19:09.801Z,68.6
2016-08-13T01:19:19.066Z,68.4
2016-08-13T01:19:29.796Z,68.4
2016-08-13T01:19:39.796Z,68.4
2016-08-13T01:19:49.065Z,68.5
2016-08-13T01:19:59.792Z,68.4
2016-08-13T01:20:09.788Z,68.6
2016-08-13T01:20:19.783Z,68.7
2016-08-13T01:20:29.782Z,68.4
2016-08-13T01:20:39.782Z,68.5
2016-08-13T01:20:49.780Z,68.6
2016-08-13T01:20:59.776Z,68.4
2016-08-13T01:21:09.776Z,68.6
2016-08-13T01:21:19.773Z,68.6
2016-08-13T01:21:29.771Z,68.3
2016-08-13T01:21:39.769Z,68.1
2016-08-13T01:21:49.772Z,68.6
2016-08-13T01:21:59.766Z,68.5
2016-08-13T01:22:09.766Z,68.4
2016-08-13T01:22:19.761Z,68.2
2016-08-13T01:22:29.760Z,68.2
2016-08-13T01:22:39.758Z,68.1
2016-08-13T01:22:49.758Z,68.1
2016-08-13T01:22:59.757Z,68.8
2016-08-13T01:23:09.755Z,68.4
2016-08-13T01:23:19.752Z,68.6
2016-08-13T01:23:29.749Z,68.6
2016-08-13T01:23:39.745Z,68.3
2016-08-13T01:23:49.022Z,68.6
2016-08-13T01:23:59.743Z,68.6
2016-08-13T01:24:09.789Z,68.6
2016-08-13T01:24:19.743Z,68.5
2016-08-13T01:24:29.742Z,68.6
2016-08-13T01:24:39.733Z,68.6
2016-08-13T01:24:49.738Z,68.1
2016-08-13T01:24:59.735Z,68.3
2016-08-13T01:25:09.002Z,68
2016-08-13T01:25:19.725Z,68.2
2016-08-13T01:25:29.730Z,68.3
2016-08-13T01:25:39.724Z,68.3
2016-08-13T01:25:49.722Z,68.4
2016-08-13T01:25:59.725Z,68.3
2016-08-13T01:26:09.723Z,68.6
2016-08-13T01:26:19.717Z,68.5
2016-08-13T01:26:29.724Z,68.6
2016-08-13T01:26:39.711Z,68.6
2016-08-13T01:26:49.717Z,68.4
2016-08-13T01:26:59.714Z,68.4
2016-08-13T01:27:09.718Z,68.7
2016-08-13T01:27:19.703Z,68.5
2016-08-13T01:27:29.703Z,68.4
2016-08-13T01:27:39.701Z,68.2
2016-08-13T01:27:48.969Z,68.2
2016-08-13T01:27:58.973Z,68.1
2016-08-13T01:28:09.696Z,68.5
2016-08-13T01:28:19.694Z,68.1
2016-08-13T01:28:29.691Z,68.4
2016-08-13T01:28:39.695Z,68.1
2016-08-13T01:28:49.687Z,68.7
2016-08-13T01:28:59.684Z,68.2
2016-08-13T01:29:09.689Z,68.2
2016-08-13T01:29:19.683Z,68
2016-08-13T01:29:29.684Z,68.6
2016-08-13T01:29:39.684Z,68.7
2016-08-13T01:29:49.683Z,68.4
2016-08-13T01:29:59.678Z,68.3
2016-08-13T01:30:09.676Z,68.6
2016-08-13T01:30:19.671Z,68.6
2016-08-13T01:30:29.673Z,68.8
2016-08-13T01:30:39.675Z,68.5
2016-08-13T01:30:49.670Z,68.5
2016-08-13T01:30:59.673Z,68.5
2016-08-13T01:31:09.661Z,68.1
2016-08-13T01:31:19.667Z,68.1
2016-08-13T01:31:29.662Z,68.3
2016-08-13T01:31:39.661Z,68.2
2016-08-13T01:31:49.653Z,68.3
2016-08-13T01:31:59.653Z,68.6
2016-08-13T01:32:09.650Z,68.3
2016-08-13T01:32:19.653Z,68.6
2016-08-13T01:32:29.648Z,68.7
2016-08-13T01:32:38.188Z,68.6
2016-08-13T01:32:49.649Z,68.6
2016-08-13T01:32:58.914Z,68.7
2016-08-13T01:33:09.640Z,68.6
2016-08-13T01:33:19.638Z,68.4
2016-08-13T01:33:29.632Z,68.5
2016-08-13T01:33:39.646Z,68.4
2016-08-13T01:33:48.904Z,68.1
2016-08-13T01:33:59.630Z,68.2
2016-08-13T01:34:09.634Z,68
2016-08-13T01:34:19.625Z,68.1
2016-08-13T01:34:29.627Z,68.1
2016-08-13T01:34:39.623Z,68.4
2016-08-13T01:34:49.622Z,68.3
2016-08-13T01:34:59.625Z,68.1
2016-08-13T01:35:09.622Z,68.2
2016-08-13T01:35:19.611Z,68.2
2016-08-13T01:35:29.611Z,68.3
2016-08-13T01:35:39.613Z,68.4
2016-08-13T01:35:49.608Z,68.4
2016-08-13T01:35:59.607Z,68.4
2016-08-13T01:36:09.604Z,68.2
2016-08-13T01:36:19.603Z,68.2
2016-08-13T01:36:28.871Z,68.2
2016-08-13T01:36:39.603Z,68.2
2016-08-13T01:36:49.597Z,68.1
2016-08-13T01:36:59.596Z,68.5
2016-08-13T01:37:08.863Z,68.4
2016-08-13T01:37:18.861Z,68.3
2016-08-13T01:37:29.589Z,68.3
2016-08-13T01:37:39.592Z,68.5
2016-08-13T01:37:49.574Z,68
2016-08-13T01:37:59.562Z,67.9
2016-08-13T01:38:09.560Z,68.1
2016-08-13T01:38:19.558Z,67.7
2016-08-13T01:38:29.565Z,68
2016-08-13T01:38:39.563Z,68
2016-08-13T01:38:49.565Z,68
2016-08-13T01:38:59.563Z,67.6
2016-08-13T01:39:09.539Z,68.6
2016-08-13T01:39:19.546Z,68.5
2016-08-13T01:39:29.556Z,67.7
2016-08-13T01:39:39.553Z,68.1
2016-08-13T01:39:49.539Z,68.5
2016-08-13T01:39:59.540Z,68.4
2016-08-13T01:40:09.547Z,68.3
2016-08-13T01:40:19.546Z,67.8
2016-08-13T01:40:29.545Z,68
2016-08-13T01:40:39.543Z,67.6
2016-08-13T01:40:49.532Z,68.4
2016-08-13T01:40:59.518Z,68.3
2016-08-13T01:41:09.517Z,68.5
2016-08-13T01:41:19.534Z,68.3
2016-08-13T01:41:29.543Z,68.3
2016-08-13T01:41:39.544Z,68.3
2016-08-13T01:41:49.539Z,68.3
2016-08-13T01:41:59.541Z,67.8
2016-08-13T01:42:09.539Z,67.6
2016-08-13T01:42:19.536Z,68.2
2016-08-13T01:42:29.536Z,67.9
2016-08-13T01:42:39.532Z,68.2
2016-08-13T01:42:49.527Z,67.9
2016-08-13T01:42:59.523Z,68
2016-08-13T01:43:09.522Z,68
2016-08-13T01:43:19.524Z,68.2
2016-08-13T01:43:29.526Z,68
2016-08-13T01:43:39.519Z,68.3
2016-08-13T01:43:49.518Z,67.7
2016-08-13T01:43:59.510Z,67.8
2016-08-13T01:44:09.566Z,68.5
2016-08-13T01:44:19.513Z,68
2016-08-13T01:44:29.517Z,67.9
2016-08-13T01:44:39.510Z,67.9
2016-08-13T01:44:49.505Z,68.3
2016-08-13T01:44:59.509Z,68
2016-08-13T01:45:08.775Z,68.1
2016-08-13T01:45:19.503Z,67.6
2016-08-13T01:45:29.497Z,68.1
2016-08-13T01:45:39.503Z,68.1
2016-08-13T01:45:49.494Z,68.4
2016-08-13T01:45:59.498Z,68.1
2016-08-13T01:46:08.778Z,67.8
2016-08-13T01:46:19.499Z,67.8
2016-08-13T01:46:29.495Z,68.6
2016-08-13T01:46:39.499Z,68.4
2016-08-13T01:46:49.494Z,67.7
2016-08-13T01:46:59.490Z,68.5
2016-08-13T01:47:09.486Z,68.5
2016-08-13T01:47:18.768Z,68
2016-08-13T01:47:29.482Z,68
2016-08-13T01:47:39.484Z,68
2016-08-13T01:47:49.481Z,68
2016-08-13T01:47:59.481Z,68.1
2016-08-13T01:48:09.476Z,68
2016-08-13T01:48:19.474Z,68.5
2016-08-13T01:48:29.470Z,68.3
2016-08-13T01:48:39.469Z,68.3
2016-08-13T01:48:48.742Z,68.4
2016-08-13T01:48:59.464Z,68.4
2016-08-13T01:49:09.463Z,68.5
2016-08-13T01:49:19.460Z,68.5
2016-08-13T01:49:29.465Z,67.6
2016-08-13T01:49:39.459Z,68
2016-08-13T01:49:49.454Z,68.1
2016-08-13T01:49:59.455Z,68.1
2016-08-13T01:50:09.458Z,68.3
2016-08-13T01:50:19.448Z,68
2016-08-13T01:50:29.465Z,68.1
2016-08-13T01:50:39.443Z,68.1
2016-08-13T01:50:49.444Z,68
2016-08-13T01:50:58.715Z,68
2016-08-13T01:51:09.445Z,68
2016-08-13T01:51:19.440Z,68.4
2016-08-13T01:51:29.435Z,67.7
2016-08-13T01:51:39.437Z,68.4
2016-08-13T01:51:49.431Z,68.1
2016-08-13T01:51:59.427Z,68
2016-08-13T01:52:09.427Z,67.7
2016-08-13T01:52:19.427Z,68.6
2016-08-13T01:52:29.424Z,68.3
2016-08-13T01:52:39.428Z,68.6
2016-08-13T01:52:49.420Z,68.3
2016-08-13T01:52:59.418Z,68.2
2016-08-13T01:53:09.420Z,68.3
2016-08-13T01:53:19.421Z,68
2016-08-13T01:53:29.417Z,68
2016-08-13T01:53:39.411Z,67.7
2016-08-13T01:53:49.416Z,68.6
2016-08-13T01:53:59.407Z,68.5
2016-08-13T01:54:09.414Z,68.1
2016-08-13T01:54:19.411Z,68.2
2016-08-13T01:54:29.404Z,68
2016-08-13T01:54:39.405Z,68
2016-08-13T01:54:49.399Z,68
2016-08-13T01:54:59.399Z,68
2016-08-13T01:55:09.394Z,67.9
2016-08-13T01:55:18.664Z,68
2016-08-13T01:55:29.399Z,67.9
2016-08-13T01:55:39.388Z,68
2016-08-13T01:55:49.392Z,68
2016-08-13T01:55:59.385Z,68
2016-08-13T01:56:08.655Z,68.3
2016-08-13T01:56:19.384Z,67.9
2016-08-13T01:56:29.379Z,67.9
2016-08-13T01:56:39.378Z,68.1
2016-08-13T01:56:49.374Z,68.4
2016-08-13T01:56:59.374Z,68.5
2016-08-13T01:57:08.644Z,67.7
2016-08-13T01:57:19.369Z,68.6
2016-08-13T01:57:29.369Z,68.1
2016-08-13T01:57:39.366Z,67.9
2016-08-13T01:57:49.362Z,68.1
2016-08-13T01:57:59.365Z,67.9
2016-08-13T01:58:09.365Z,67.9
2016-08-13T01:58:19.360Z,68.1
2016-08-13T01:58:28.627Z,67.9
2016-08-13T01:58:39.357Z,68.1
2016-08-13T01:58:49.358Z,67.9
2016-08-13T01:58:59.350Z,68.2
2016-08-13T01:59:09.349Z,67.9
2016-08-13T01:59:19.354Z,67.9
2016-08-13T01:59:29.346Z,67.9
2016-08-13T01:59:39.355Z,67.9
2016-08-13T01:59:49.339Z,68.1
2016-08-13T01:59:59.339Z,68.2
2016-08-13T02:00:09.345Z,68
2016-08-13T02:00:19.336Z,67.9
2016-08-13T02:00:29.333Z,68.1
2016-08-13T02:00:39.335Z,68.1
2016-08-13T02:00:49.329Z,67.9
2016-08-13T02:00:59.326Z,67.9
2016-08-13T02:01:09.335Z,68
2016-08-13T02:01:19.327Z,68.1
2016-08-13T02:01:29.323Z,68
2016-08-13T02:01:39.325Z,68
2016-08-13T02:01:49.317Z,68
2016-08-13T02:01:59.315Z,68.1
2016-08-13T02:02:09.314Z,68.2
2016-08-13T02:02:19.313Z,68
2016-08-13T02:02:29.315Z,67.7
2016-08-13T02:02:39.312Z,68.1
2016-08-13T02:02:48.586Z,68.1
2016-08-13T02:02:59.314Z,68.1
2016-08-13T02:03:09.306Z,67.9
2016-08-13T02:03:19.303Z,68.2
2016-08-13T02:03:29.301Z,68.2
2016-08-13T02:03:39.299Z,67.9
2016-08-13T02:03:49.298Z,68.1
2016-08-13T02:03:59.295Z,68.1
2016-08-13T02:04:09.296Z,67.9
2016-08-13T02:04:19.294Z,67.9
2016-08-13T02:04:28.565Z,67.9
2016-08-13T02:04:39.284Z,67.9
2016-08-13T02:04:49.285Z,68
2016-08-13T02:04:58.552Z,68
2016-08-13T02:05:09.280Z,67.9
2016-08-13T02:05:19.288Z,67.9
2016-08-13T02:05:29.281Z,68.2
2016-08-13T02:05:39.276Z,67.7
2016-08-13T02:05:49.273Z,67.9
2016-08-13T02:05:59.275Z,67.7
2016-08-13T02:06:09.271Z,68.1
2016-08-13T02:06:19.274Z,67.9
2016-08-13T02:06:29.264Z,68.1
2016-08-13T02:06:39.271Z,68.1
2016-08-13T02:06:48.530Z,67.9
2016-08-13T02:06:58.530Z,68.1
2016-08-13T02:07:09.256Z,67.7
2016-08-13T02:07:18.525Z,67.9
2016-08-13T02:07:29.261Z,68.3
2016-08-13T02:07:39.252Z,67.7
2016-08-13T02:07:49.253Z,67.7
2016-08-13T02:07:59.249Z,67.9
2016-08-13T02:08:09.248Z,67.9
2016-08-13T02:08:19.248Z,68.1
2016-08-13T02:08:29.244Z,67.7
2016-08-13T02:08:39.241Z,67.7
2016-08-13T02:08:49.249Z,68.1
2016-08-13T02:08:59.235Z,67.9
2016-08-13T02:09:09.242Z,67.8
2016-08-13T02:09:19.235Z,67.9
2016-08-13T02:09:29.231Z,67.8
2016-08-13T02:09:39.234Z,67.9
2016-08-13T02:09:49.226Z,67.9
2016-08-13T02:09:59.227Z,67.8
2016-08-13T02:10:09.225Z,67.8
2016-08-13T02:10:19.220Z,67.8
2016-08-13T02:10:29.221Z,67.8
2016-08-13T02:10:39.217Z,67.9
2016-08-13T02:10:49.214Z,67.8
2016-08-13T02:10:59.212Z,67.8
2016-08-13T02:11:09.210Z,67.9
2016-08-13T02:11:19.210Z,67.9
2016-08-13T02:11:29.225Z,67.7
2016-08-13T02:11:39.211Z,67.8
2016-08-13T02:11:49.205Z,67.9
2016-08-13T02:11:59.204Z,68
2016-08-13T02:12:09.198Z,67.9
2016-08-13T02:12:19.210Z,67.8
2016-08-13T02:12:29.195Z,68
2016-08-13T02:12:38.468Z,68.1
2016-08-13T02:12:47.738Z,67.9
2016-08-13T02:12:59.191Z,68
2016-08-13T02:13:09.188Z,67.8
2016-08-13T02:13:19.188Z,68.1
2016-08-13T02:13:28.453Z,68
2016-08-13T02:13:39.187Z,68
2016-08-13T02:13:49.181Z,68
2016-08-13T02:13:59.180Z,67.9
2016-08-13T02:14:09.185Z,67.8